createdAt,value
2023-04-13T00:01:40.708Z,98298.38
2023-04-13T00:06:42.882Z,98295.47
2023-04-13T00:11:47.008Z,98293.19
2023-04-13T00:16:51.574Z,98294.25
2023-04-13T00:21:53.896Z,98285.78
2023-04-13T00:26:57.153Z,98296.53
2023-04-13T00:31:58.797Z,98300.06
2023-04-13T00:37:02.301Z,98301.94
2023-04-13T00:42:05.668Z,98305.47
2023-04-13T00:47:07.723Z,98305.28
2023-04-13T00:52:12.001Z,98311.69
2023-04-13T00:57:13.949Z,98305.09
2023-04-13T01:02:16.960Z,98301.34
2023-04-13T01:07:27.809Z,98303.81
2023-04-13T01:13:00.374Z,98309.41
2023-04-13T01:18:07.443Z,98308.41
2023-04-13T01:23:24.724Z,98303.66
2023-04-13T01:28:28.770Z,98314.81
2023-04-13T01:33:30.726Z,98316.50
2023-04-13T01:38:33.644Z,98308.00
2023-04-13T01:43:37.540Z,98305.56
2023-04-13T01:48:51.917Z,98302.66
2023-04-13T01:54:13.981Z,98306.16
2023-04-13T01:59:20.227Z,98313.00
2023-04-13T02:04:22.749Z,98330.78
2023-04-13T02:09:28.203Z,98341.31
2023-04-13T02:14:31.157Z,98353.09
2023-04-13T02:19:33.128Z,98361.97
2023-04-13T02:24:37.310Z,98366.75
2023-04-13T02:29:38.935Z,98358.88
2023-04-13T02:34:41.688Z,98365.50
2023-04-13T02:39:43.592Z,98356.59
2023-04-13T02:44:46.707Z,98353.72
2023-04-13T02:49:48.508Z,98359.72
2023-04-13T02:55:05.098Z,98357.63
2023-04-13T03:00:19.366Z,98366.31
2023-04-13T03:05:28.997Z,98375.00
2023-04-13T03:10:31.327Z,98379.13
2023-04-13T03:15:35.075Z,98382.25
2023-04-13T03:20:36.756Z,98389.66
2023-04-13T03:25:39.666Z,98394.59
2023-04-13T03:30:41.630Z,98402.25
2023-04-13T03:35:43.595Z,98409.00
2023-04-13T03:40:54.504Z,98417.72
2023-04-13T03:45:56.256Z,98423.03
2023-04-13T03:50:58.610Z,98424.69
2023-04-13T03:56:07.171Z,98415.34
2023-04-13T04:01:10.832Z,98437.28
2023-04-13T04:06:19.986Z,98430.06
2023-04-13T04:11:28.826Z,98422.00
2023-04-13T04:16:31.198Z,98410.81
2023-04-13T04:21:44.865Z,98407.53
2023-04-13T04:26:50.582Z,98407.91
2023-04-13T04:31:53.892Z,98427.06
2023-04-13T04:37:03.177Z,98438.66
2023-04-13T04:42:07.590Z,98438.22
2023-04-13T04:47:09.407Z,98437.19
2023-04-13T04:52:29.730Z,98445.44
2023-04-13T04:57:34.154Z,98447.69
2023-04-13T05:02:37.303Z,98477.00
2023-04-13T05:07:42.435Z,98485.03
2023-04-13T05:12:44.229Z,98495.97
2023-04-13T05:17:47.088Z,98512.09
2023-04-13T05:22:49.806Z,98514.03
2023-04-13T05:27:52.044Z,98519.13
2023-04-13T05:32:54.248Z,98527.00
2023-04-13T05:37:57.342Z,98544.09
2023-04-13T05:42:59.264Z,98547.56
2023-04-13T05:48:04.834Z,98559.69
2023-04-13T05:53:06.761Z,98576.25
2023-04-13T05:58:19.152Z,98580.34
2023-04-13T06:03:25.762Z,98589.63
2023-04-13T06:08:32.766Z,98604.66
2023-04-13T06:13:35.247Z,98595.13
2023-04-13T06:18:37.504Z,98587.75
2023-04-13T06:23:39.163Z,98577.41
2023-04-13T06:28:50.339Z,98590.97
2023-04-13T06:33:52.342Z,98599.53
2023-04-13T06:38:59.702Z,98580.03
2023-04-13T06:44:01.656Z,98578.19
2023-04-13T06:49:08.019Z,98580.81
2023-04-13T06:54:12.629Z,98587.75
2023-04-13T06:59:20.438Z,98572.53
2023-04-13T07:04:22.747Z,98583.63
2023-04-13T07:09:26.253Z,98574.41
2023-04-13T07:14:28.139Z,98580.69
2023-04-13T07:19:31.385Z,98598.16
2023-04-13T07:24:34.373Z,98604.28
2023-04-13T07:29:40.707Z,98608.13
2023-04-13T07:34:47.804Z,98617.66
2023-04-13T07:39:50.246Z,98620.69
2023-04-13T07:44:56.761Z,98618.38
2023-04-13T07:50:00.074Z,98634.22
2023-04-13T07:55:03.577Z,98642.72
2023-04-13T08:00:12.528Z,98657.63
2023-04-13T08:05:20.879Z,98662.88
2023-04-13T08:10:24.286Z,98648.38
2023-04-13T08:15:29.153Z,98671.69
2023-04-13T08:20:31.268Z,98673.91
2023-04-13T08:25:39.951Z,98668.88
2023-04-13T08:30:42.719Z,98688.09
2023-04-13T08:35:44.683Z,98689.19
2023-04-13T08:40:50.090Z,98676.91
2023-04-13T08:45:57.980Z,98678.53
2023-04-13T08:51:01.449Z,98683.44
2023-04-13T08:56:09.596Z,98686.50
2023-04-13T09:01:16.289Z,98682.84
2023-04-13T09:06:25.913Z,98691.09
2023-04-13T09:11:28.422Z,98693.94
2023-04-13T09:16:37.961Z,98692.09
2023-04-13T09:21:43.534Z,98693.25
2023-04-13T09:26:47.322Z,98694.66
2023-04-13T09:31:49.082Z,98707.19
2023-04-13T09:36:54.673Z,98711.41
2023-04-13T09:41:58.702Z,98705.69
2023-04-13T09:47:02.287Z,98712.91
2023-04-13T09:52:09.904Z,98716.84
2023-04-13T09:57:11.554Z,98723.69
2023-04-13T10:02:15.630Z,98725.44
2023-04-13T10:07:18.234Z,98712.63
2023-04-13T10:12:19.918Z,98716.97
2023-04-13T10:17:33.683Z,98722.16
2023-04-13T10:22:35.696Z,98726.13
2023-04-13T10:27:37.383Z,98723.50
2023-04-13T10:32:39.074Z,98727.34
2023-04-13T10:37:43.108Z,98730.06
2023-04-13T10:42:53.213Z,98719.03
2023-04-13T10:47:55.985Z,98723.88
2023-04-13T10:52:59.158Z,98723.38
2023-04-13T10:58:02.210Z,98719.19
2023-04-13T11:03:04.196Z,98713.94
2023-04-13T11:08:06.065Z,98710.94
2023-04-13T11:13:07.719Z,98707.81
2023-04-13T11:18:10.094Z,98707.63
2023-04-13T11:23:18.886Z,98713.38
2023-04-13T11:28:23.547Z,98703.03
2023-04-13T11:33:26.591Z,98708.41
2023-04-13T11:38:29.346Z,98718.91
2023-04-13T11:43:31.613Z,98707.56
2023-04-13T11:48:33.451Z,98707.28
2023-04-13T11:53:38.030Z,98701.50
2023-04-13T11:58:39.805Z,98693.28
2023-04-13T12:03:53.476Z,98696.72
2023-04-13T12:09:11.075Z,98705.28
2023-04-13T12:19:30.473Z,98695.69
2023-04-13T12:24:38.126Z,98701.81
2023-04-13T12:29:41.072Z,98706.50
2023-04-13T12:34:43.920Z,98698.72
2023-04-13T12:39:45.568Z,98692.13
2023-04-13T12:44:47.220Z,98684.47
2023-04-13T12:49:49.066Z,98695.66
2023-04-13T12:54:51.019Z,98704.22
2023-04-13T12:59:52.744Z,98717.09
2023-04-13T13:04:57.166Z,98725.63
2023-04-13T13:10:01.097Z,98709.88
2023-04-13T13:15:04.396Z,98703.03
2023-04-13T13:20:08.074Z,98710.13
2023-04-13T13:25:10.299Z,98718.50
2023-04-13T13:30:12.171Z,98717.28
2023-04-13T13:35:14.855Z,98702.63
2023-04-13T13:40:16.686Z,98701.38
2023-04-13T13:45:21.265Z,98709.63
2023-04-13T13:50:22.916Z,98712.88
2023-04-13T13:55:26.429Z,98713.97
2023-04-13T14:00:28.105Z,98706.09
2023-04-13T14:05:29.789Z,98705.78
2023-04-13T14:10:31.444Z,98713.06
2023-04-13T14:15:33.815Z,98712.06
2023-04-13T14:20:38.817Z,98708.66
2023-04-13T14:25:41.482Z,98696.06
2023-04-13T14:30:43.187Z,98693.56
2023-04-13T14:35:45.562Z,98695.00
2023-04-13T14:40:47.187Z,98691.50
2023-04-13T14:45:53.046Z,98695.88
2023-04-13T14:50:54.906Z,98694.69
2023-04-13T14:55:57.503Z,98702.28
2023-04-13T15:00:59.696Z,98717.03
2023-04-13T15:06:04.612Z,98729.91
2023-04-13T15:11:07.709Z,98732.09
2023-04-13T15:16:09.476Z,98741.13
2023-04-13T15:21:11.142Z,98730.84
2023-04-13T15:26:18.637Z,98734.28
2023-04-13T15:31:22.866Z,98741.66
2023-04-13T15:36:24.700Z,98747.94
2023-04-13T15:41:27.884Z,98754.75
2023-04-13T15:46:29.902Z,98759.34
2023-04-13T15:51:32.329Z,98760.25
2023-04-13T15:56:33.986Z,98765.41
2023-04-13T16:01:47.286Z,98771.53
2023-04-13T16:07:05.091Z,98773.38
2023-04-13T16:12:12.584Z,98766.53
2023-04-13T16:17:18.634Z,98772.63
2023-04-13T16:22:20.323Z,98772.63
2023-04-13T16:27:22.435Z,98774.97
2023-04-13T16:32:24.456Z,98764.75
2023-04-13T16:37:26.409Z,98764.66
2023-04-13T16:42:28.007Z,98763.88
2023-04-13T16:47:30.041Z,98768.84
2023-04-13T16:52:34.820Z,98757.16
2023-04-13T16:57:36.809Z,98764.19
2023-04-13T17:02:40.072Z,98771.31
2023-04-13T17:07:43.833Z,98773.22
2023-04-13T17:12:46.618Z,98770.97
2023-04-13T17:17:48.337Z,98767.03
2023-04-13T17:22:50.180Z,98766.41
2023-04-13T17:27:53.395Z,98752.94
2023-04-13T17:32:55.234Z,98756.34
2023-04-13T17:37:56.917Z,98754.69
2023-04-13T17:42:58.620Z,98754.47
2023-04-13T17:48:00.448Z,98763.19
2023-04-13T17:53:04.282Z,98751.78
2023-04-13T17:58:06.242Z,98771.84
2023-04-13T18:03:09.316Z,98804.66
2023-04-13T18:08:11.268Z,98838.06
2023-04-13T18:13:12.984Z,98882.88
2023-04-13T18:18:14.699Z,98913.34
2023-04-13T18:23:16.337Z,98908.53
2023-04-13T18:28:18.174Z,98920.28
2023-04-13T18:33:19.832Z,98933.53
2023-04-13T18:38:22.733Z,98947.66
2023-04-13T18:43:24.372Z,98944.88
2023-04-13T18:48:26.172Z,98947.44
2023-04-13T18:53:28.523Z,98947.69
2023-04-13T18:58:30.407Z,98944.34
2023-04-13T19:03:32.289Z,98932.03
2023-04-13T19:08:33.968Z,98927.22
2023-04-13T19:13:35.711Z,98919.34
2023-04-13T19:18:37.347Z,98915.09
2023-04-13T19:23:40.471Z,98914.97
2023-04-13T19:28:42.482Z,98910.41
2023-04-13T19:33:46.176Z,98908.78
2023-04-13T19:38:47.831Z,98916.44
2023-04-13T19:43:50.284Z,98922.81
2023-04-13T19:48:51.977Z,98912.41
2023-04-13T19:53:54.002Z,98914.28
2023-04-13T19:58:55.637Z,98898.13
2023-04-13T20:03:57.523Z,98898.03
2023-04-13T20:09:09.880Z,98902.47
2023-04-13T20:14:11.676Z,98904.69
2023-04-13T20:19:13.362Z,98911.34
2023-04-13T20:24:15.131Z,98916.78
2023-04-13T20:29:21.701Z,98923.94
2023-04-13T20:34:24.329Z,98918.72
2023-04-13T20:39:29.822Z,98911.41
2023-04-13T20:44:32.390Z,98891.66
2023-04-13T20:49:35.102Z,98886.94
2023-04-13T20:54:36.754Z,98875.91
2023-04-13T20:59:38.439Z,98874.28
2023-04-13T21:04:41.300Z,98871.16
2023-04-13T21:09:43.176Z,98875.69
2023-04-13T21:14:44.791Z,98873.72
2023-04-13T21:19:46.428Z,98884.84
2023-04-13T21:24:48.074Z,98882.78
2023-04-13T21:29:49.687Z,98883.13
2023-04-13T21:34:51.892Z,98899.03
2023-04-13T21:39:54.718Z,98908.25
2023-04-13T21:44:57.164Z,98915.44
2023-04-13T21:49:58.813Z,98910.81
2023-04-13T21:55:00.597Z,98908.63
2023-04-13T22:00:03.875Z,98900.91
2023-04-13T22:05:16.362Z,98885.63
2023-04-13T22:10:17.993Z,98877.28
2023-04-13T22:15:19.623Z,98869.81
2023-04-13T22:20:21.291Z,98869.25
2023-04-13T22:25:25.328Z,98858.72
2023-04-13T22:30:26.992Z,98845.59
2023-04-13T22:35:28.601Z,98837.50
2023-04-13T22:40:30.203Z,98836.69
2023-04-13T22:45:31.890Z,98851.13
2023-04-13T22:50:33.522Z,98857.66
2023-04-13T22:55:35.114Z,98859.31
2023-04-13T23:00:36.725Z,98872.75
2023-04-13T23:05:38.313Z,98885.03
2023-04-13T23:10:39.921Z,98888.34
2023-04-13T23:15:41.540Z,98899.53
2023-04-13T23:20:43.150Z,98906.25
2023-04-13T23:25:51.942Z,98910.34
2023-04-13T23:30:53.530Z,98906.88
2023-04-13T23:35:55.402Z,98904.38
2023-04-13T23:40:57.756Z,98908.25
2023-04-13T23:45:59.489Z,98896.97
2023-04-13T23:51:01.578Z,98907.13
2023-04-13T23:56:03.328Z,98893.06
